createdAt,value
2023-01-08T00:01:22.541Z,10.88
2023-01-08T00:03:50.512Z,10.89
2023-01-08T00:06:21.536Z,10.90
2023-01-08T00:08:49.634Z,10.91
2023-01-08T00:11:17.437Z,10.92
2023-01-08T00:13:45.388Z,10.93
2023-01-08T00:16:13.282Z,10.89
2023-01-08T00:18:41.207Z,10.71
2023-01-08T00:21:09.454Z,10.49
2023-01-08T00:23:37.257Z,10.31
2023-01-08T00:26:05.085Z,10.18
2023-01-08T00:28:33.337Z,10.11
2023-01-08T00:31:03.572Z,10.07
2023-01-08T00:33:32.143Z,10.08
2023-01-08T00:35:59.875Z,10.10
2023-01-08T00:38:27.618Z,10.13
2023-01-08T00:40:55.410Z,10.20
2023-01-08T00:43:23.430Z,10.24
2023-01-08T00:45:54.028Z,10.31
2023-01-08T00:48:22.606Z,10.35
2023-01-08T00:50:50.441Z,10.39
2023-01-08T00:53:18.229Z,10.42
2023-01-08T00:55:46.027Z,10.47
2023-01-08T00:58:14.117Z,10.50
2023-01-08T01:00:41.807Z,10.53
2023-01-08T01:03:09.589Z,10.54
2023-01-08T01:05:37.346Z,10.53
2023-01-08T01:08:05.351Z,10.52
2023-01-08T01:10:33.373Z,10.51
2023-01-08T01:13:01.638Z,10.51
2023-01-08T01:15:29.263Z,10.49
2023-01-08T01:17:57.051Z,10.49
2023-01-08T01:20:25.070Z,10.49
2023-01-08T01:22:53.161Z,10.49
2023-01-08T01:25:20.978Z,10.50
2023-01-08T01:27:48.838Z,10.52
2023-01-08T01:30:16.702Z,10.53
2023-01-08T01:32:44.593Z,10.56
2023-01-08T01:35:13.155Z,10.56
2023-01-08T01:37:40.919Z,10.58
2023-01-08T01:40:08.593Z,10.59
2023-01-08T01:42:44.031Z,10.63
2023-01-08T01:45:11.787Z,10.65
2023-01-08T01:47:39.821Z,10.66
2023-01-08T01:50:07.583Z,10.69
2023-01-08T01:52:35.252Z,10.68
2023-01-08T01:55:02.984Z,10.69
2023-01-08T01:57:30.620Z,10.69
2023-01-08T01:59:58.752Z,10.70
2023-01-08T02:02:26.471Z,10.69
2023-01-08T02:04:54.252Z,10.69
2023-01-08T02:07:21.883Z,10.68
2023-01-08T02:09:49.814Z,10.71
2023-01-08T02:12:20.605Z,10.73
2023-01-08T02:14:48.221Z,10.76
2023-01-08T02:17:15.824Z,10.77
2023-01-08T02:19:43.500Z,10.80
2023-01-08T02:22:11.143Z,10.80
2023-01-08T02:24:39.158Z,10.82
2023-01-08T02:27:06.867Z,10.80
2023-01-08T02:29:34.519Z,10.79
2023-01-08T02:32:02.126Z,10.77
2023-01-08T02:34:32.248Z,10.69
2023-01-08T02:37:00.220Z,10.63
2023-01-08T02:39:28.290Z,10.55
2023-01-08T02:41:56.043Z,10.52
2023-01-08T02:44:23.682Z,10.51
2023-01-08T02:46:51.557Z,10.51
2023-01-08T02:49:19.735Z,10.52
2023-01-08T02:51:47.337Z,10.52
2023-01-08T02:54:14.912Z,10.51
2023-01-08T02:56:42.594Z,10.47
2023-01-08T02:59:10.239Z,10.44
2023-01-08T03:01:38.746Z,10.38
2023-01-08T03:04:06.474Z,10.35
2023-01-08T03:06:34.166Z,10.31
2023-01-08T03:09:01.751Z,10.26
2023-01-08T03:11:29.399Z,10.22
2023-01-08T03:13:57.378Z,10.21
2023-01-08T03:16:25.066Z,10.22
2023-01-08T03:18:52.804Z,10.24
2023-01-08T03:21:20.476Z,10.27
2023-01-08T03:23:49.667Z,10.31
2023-01-08T03:26:17.682Z,10.35
2023-01-08T03:28:45.321Z,10.39
2023-01-08T03:31:13.041Z,10.43
2023-01-08T03:33:40.728Z,10.46
2023-01-08T03:36:08.329Z,10.47
2023-01-08T03:38:36.293Z,10.49
2023-01-08T03:41:03.916Z,10.48
2023-01-08T03:43:31.511Z,10.47
2023-01-08T03:45:59.564Z,10.46
2023-01-08T03:48:27.461Z,10.46
2023-01-08T03:50:55.543Z,10.45
2023-01-08T03:53:25.394Z,10.45
2023-01-08T03:55:53.089Z,10.47
2023-01-08T03:58:20.692Z,10.46
2023-01-08T04:00:48.561Z,10.45
2023-01-08T04:03:16.218Z,10.45
2023-01-08T04:05:44.102Z,10.45
2023-01-08T04:08:12.116Z,10.45
2023-01-08T04:10:39.789Z,10.46
2023-01-08T04:13:07.581Z,10.46
2023-01-08T04:15:35.955Z,10.46
2023-01-08T04:18:03.625Z,10.46
2023-01-08T04:20:31.256Z,10.49
2023-01-08T04:22:58.836Z,10.49
2023-01-08T04:25:26.722Z,10.50
2023-01-08T04:27:54.743Z,10.51
2023-01-08T04:30:22.804Z,10.53
2023-01-08T04:32:50.491Z,10.52
2023-01-08T04:35:18.114Z,10.54
2023-01-08T04:37:45.742Z,10.52
2023-01-08T04:40:13.901Z,10.54
2023-01-08T04:42:41.536Z,10.52
2023-01-08T04:45:09.111Z,10.51
2023-01-08T04:47:36.827Z,10.49
2023-01-08T04:50:04.592Z,10.47
2023-01-08T04:52:33.029Z,10.50
2023-01-08T04:55:00.648Z,10.51
2023-01-08T04:57:28.216Z,10.53
2023-01-08T04:59:55.777Z,10.52
2023-01-08T05:02:23.615Z,10.45
2023-01-08T05:04:51.747Z,10.39
2023-01-08T05:07:19.335Z,10.35
2023-01-08T05:09:47.010Z,10.34
2023-01-08T05:12:14.629Z,10.31
2023-01-08T05:14:43.357Z,10.27
2023-01-08T05:17:11.517Z,10.22
2023-01-08T05:19:39.195Z,10.17
2023-01-08T05:22:06.769Z,10.14
2023-01-08T05:24:34.398Z,10.12
2023-01-08T05:27:02.035Z,10.13
2023-01-08T05:29:29.997Z,10.14
2023-01-08T05:31:57.714Z,10.10
2023-01-08T05:34:25.371Z,10.07
2023-01-08T05:36:53.364Z,10.03
2023-01-08T05:39:21.025Z,9.97
2023-01-08T05:41:48.809Z,9.93
2023-01-08T05:44:16.388Z,9.89
2023-01-08T05:46:44.132Z,9.86
2023-01-08T05:49:11.749Z,9.84
2023-01-08T05:51:39.639Z,9.82
2023-01-08T05:54:07.629Z,9.79
2023-01-08T05:56:35.316Z,9.75
2023-01-08T05:59:02.919Z,9.74
2023-01-08T06:01:30.623Z,9.75
2023-01-08T06:03:59.095Z,9.78
2023-01-08T06:06:27.099Z,9.82
2023-01-08T06:08:54.711Z,9.85
2023-01-08T06:11:22.307Z,9.89
2023-01-08T06:13:49.931Z,9.93
2023-01-08T06:16:18.256Z,9.96
2023-01-08T06:18:46.083Z,10.01
2023-01-08T06:21:13.752Z,10.03
2023-01-08T06:23:41.426Z,10.07
2023-01-08T06:26:09.033Z,10.11
2023-01-08T06:28:36.826Z,10.14
2023-01-08T06:31:04.879Z,10.14
2023-01-08T06:33:32.530Z,10.13
2023-01-08T06:36:00.142Z,10.11
2023-01-08T06:38:27.898Z,10.10
2023-01-08T06:40:57.109Z,10.06
2023-01-08T06:43:25.067Z,10.02
2023-01-08T06:45:52.718Z,9.99
2023-01-08T06:48:20.332Z,9.99
2023-01-08T06:50:47.962Z,9.96
2023-01-08T06:53:15.602Z,9.93
2023-01-08T06:55:43.595Z,9.92
2023-01-08T06:58:12.280Z,9.90
2023-01-08T07:00:39.963Z,9.89
2023-01-08T07:03:08.167Z,9.88
2023-01-08T07:05:35.878Z,9.89
2023-01-08T07:08:03.915Z,9.89
2023-01-08T07:10:31.678Z,9.88
2023-01-08T07:12:59.292Z,9.90
2023-01-08T07:15:26.949Z,9.92
2023-01-08T07:17:54.582Z,9.92
2023-01-08T07:20:22.557Z,9.89
2023-01-08T07:22:50.221Z,9.89
2023-01-08T07:25:18.287Z,9.89
2023-01-08T07:27:45.881Z,9.89
2023-01-08T07:30:28.337Z,9.91
2023-01-08T07:32:57.626Z,9.92
2023-01-08T07:35:25.282Z,9.95
2023-01-08T07:37:52.942Z,9.98
2023-01-08T07:40:20.778Z,10.03
2023-01-08T07:42:48.455Z,10.08
2023-01-08T07:45:16.087Z,10.14
2023-01-08T07:47:43.658Z,10.21
2023-01-08T07:50:11.280Z,10.25
2023-01-08T07:52:38.966Z,10.29
2023-01-08T07:55:06.610Z,10.28
2023-01-08T07:57:34.597Z,10.14
2023-01-08T08:00:02.223Z,9.97
2023-01-08T08:02:30.064Z,9.82
2023-01-08T08:04:57.875Z,9.70
2023-01-08T08:07:26.001Z,9.59
2023-01-08T08:09:53.980Z,9.49
2023-01-08T08:12:21.635Z,9.40
2023-01-08T08:14:49.261Z,9.31
2023-01-08T08:17:16.916Z,9.19
2023-01-08T08:19:45.733Z,9.11
2023-01-08T08:22:13.747Z,9.04
2023-01-08T08:24:41.415Z,8.98
2023-01-08T08:27:09.070Z,8.95
2023-01-08T08:29:38.768Z,8.93
2023-01-08T08:32:06.385Z,8.96
2023-01-08T08:34:34.468Z,8.99
2023-01-08T08:37:02.123Z,9.04
2023-01-08T08:39:29.770Z,9.11
2023-01-08T08:41:57.525Z,9.15
2023-01-08T08:44:25.222Z,9.19
2023-01-08T08:46:53.322Z,9.20
2023-01-08T08:49:21.248Z,9.21
2023-01-08T08:51:49.481Z,9.20
2023-01-08T08:54:17.265Z,9.18
2023-01-08T08:56:45.124Z,9.17
2023-01-08T08:59:13.887Z,9.15
2023-01-08T09:01:41.736Z,9.13
2023-01-08T09:04:09.612Z,9.10
2023-01-08T09:06:37.553Z,9.04
2023-01-08T09:09:05.362Z,9.00
2023-01-08T09:11:33.458Z,8.95
2023-01-08T09:14:01.678Z,8.95
2023-01-08T09:16:29.423Z,8.96
2023-01-08T09:18:57.636Z,8.99
2023-01-08T09:21:25.300Z,9.01
2023-01-08T09:23:53.343Z,9.05
2023-01-08T09:26:21.093Z,9.14
2023-01-08T09:28:48.861Z,9.24
2023-01-08T09:31:16.952Z,9.32
2023-01-08T09:33:44.848Z,9.37
2023-01-08T09:36:13.516Z,9.36
2023-01-08T09:38:41.258Z,9.34
2023-01-08T09:41:09.338Z,9.29
2023-01-08T09:43:37.590Z,9.25
2023-01-08T09:46:05.482Z,9.23
2023-01-08T09:48:33.991Z,9.28
2023-01-08T09:51:01.730Z,9.35
2023-01-08T09:53:29.475Z,9.47
2023-01-08T09:56:09.228Z,9.58
2023-01-08T09:58:38.431Z,9.67
2023-01-08T10:01:06.499Z,9.68
2023-01-08T10:03:34.447Z,9.64
2023-01-08T10:06:02.479Z,9.61
2023-01-08T10:08:30.821Z,9.58
2023-01-08T10:10:59.045Z,9.55
2023-01-08T10:13:26.940Z,9.51
2023-01-08T10:15:54.814Z,9.47
2023-01-08T10:18:22.729Z,9.45
2023-01-08T10:20:51.004Z,9.41
2023-01-08T10:23:20.286Z,9.42
2023-01-08T10:25:48.324Z,9.69
2023-01-08T10:28:16.177Z,9.98
2023-01-08T10:30:44.318Z,10.03
2023-01-08T10:33:12.131Z,10.05
2023-01-08T10:35:40.295Z,10.11
2023-01-08T10:38:08.702Z,10.19
2023-01-08T10:40:36.502Z,10.32
2023-01-08T10:43:04.664Z,10.38
2023-01-08T10:45:32.702Z,10.57
2023-01-08T10:48:01.138Z,10.91
2023-01-08T10:50:29.038Z,11.54
2023-01-08T10:52:57.111Z,12.35
2023-01-08T10:55:25.210Z,13.41
2023-01-08T10:57:53.086Z,14.31
2023-01-08T11:00:21.870Z,15.06
2023-01-08T11:02:50.893Z,15.65
2023-01-08T11:05:18.731Z,15.98
2023-01-08T11:07:46.717Z,16.04
2023-01-08T11:10:14.729Z,15.91
2023-01-08T11:12:42.962Z,15.81
2023-01-08T11:15:10.952Z,15.94
2023-01-08T11:17:38.919Z,16.08
2023-01-08T11:20:07.695Z,16.19
2023-01-08T11:22:36.223Z,16.55
2023-01-08T11:25:04.247Z,16.90
2023-01-08T11:27:32.189Z,16.96
2023-01-08T11:30:00.284Z,16.91
2023-01-08T11:32:28.211Z,16.91
2023-01-08T11:34:56.152Z,16.99
2023-01-08T11:37:24.652Z,16.67
2023-01-08T11:39:52.406Z,15.98
2023-01-08T11:42:20.320Z,15.88
2023-01-08T11:44:49.692Z,15.99
2023-01-08T11:47:17.609Z,16.22
2023-01-08T11:49:45.785Z,16.34
2023-01-08T11:52:13.625Z,16.11
2023-01-08T11:54:41.506Z,15.95
2023-01-08T11:57:09.960Z,15.37
2023-01-08T11:59:38.064Z,14.55
2023-01-08T12:02:06.541Z,13.91
2023-01-08T12:04:34.330Z,13.43
2023-01-08T12:07:02.808Z,13.06
2023-01-08T12:09:31.193Z,12.80
2023-01-08T12:11:59.043Z,12.60
2023-01-08T12:14:28.248Z,12.42
2023-01-08T12:16:56.200Z,12.29
2023-01-08T12:19:24.146Z,12.17
2023-01-08T12:21:52.280Z,12.14
2023-01-08T12:24:20.131Z,12.07
2023-01-08T12:26:48.304Z,11.98
2023-01-08T12:29:16.761Z,11.90
2023-01-08T12:31:48.705Z,11.83
2023-01-08T12:34:26.032Z,11.80
2023-01-08T12:36:54.170Z,11.75
2023-01-08T12:39:22.023Z,11.76
2023-01-08T12:41:50.120Z,11.82
2023-01-08T12:44:18.005Z,11.90
2023-01-08T12:46:46.881Z,11.87
2023-01-08T12:49:15.202Z,11.74
2023-01-08T12:51:43.175Z,11.62
2023-01-08T12:54:11.062Z,11.53
2023-01-08T12:56:39.161Z,11.49
2023-01-08T12:59:07.291Z,11.46
2023-01-08T13:01:35.267Z,11.45
2023-01-08T13:04:04.645Z,11.41
2023-01-08T13:06:32.476Z,11.36
2023-01-08T13:09:01.622Z,11.29
2023-01-08T13:11:31.715Z,11.19
2023-01-08T13:13:59.694Z,11.09
2023-01-08T13:16:27.532Z,10.86
2023-01-08T13:18:55.572Z,10.52
2023-01-08T13:21:23.518Z,10.24
2023-01-08T13:23:51.437Z,10.07
2023-01-08T13:26:20.092Z,9.97
2023-01-08T13:28:47.970Z,9.88
2023-01-08T13:31:15.710Z,9.83
2023-01-08T13:33:44.673Z,9.83
2023-01-08T13:36:13.082Z,9.88
2023-01-08T13:38:41.591Z,9.90
2023-01-08T13:41:09.679Z,9.87
2023-01-08T13:43:37.516Z,9.86
2023-01-08T13:46:05.950Z,9.89
2023-01-08T13:48:35.098Z,9.97
2023-01-08T13:51:03.832Z,10.03
2023-01-08T13:53:31.589Z,9.99
2023-01-08T13:56:00.066Z,9.99
2023-01-08T13:58:30.206Z,10.08
2023-01-08T14:00:59.294Z,10.15
2023-01-08T14:03:28.160Z,10.18
2023-01-08T14:05:56.127Z,10.27
2023-01-08T14:08:24.475Z,10.32
2023-01-08T14:10:52.540Z,10.40
2023-01-08T14:13:20.721Z,10.48
2023-01-08T14:15:49.167Z,10.55
2023-01-08T14:18:17.350Z,10.58
2023-01-08T14:20:45.275Z,10.63
2023-01-08T14:23:13.454Z,10.86
2023-01-08T14:25:41.459Z,11.14
2023-01-08T14:28:09.713Z,11.38
2023-01-08T14:30:38.121Z,11.49
2023-01-08T14:33:06.210Z,11.31
2023-01-08T14:35:34.193Z,11.16
2023-01-08T14:38:03.318Z,10.96
2023-01-08T14:40:31.692Z,10.74
2023-01-08T14:42:59.613Z,10.52
2023-01-08T14:45:27.823Z,10.35
2023-01-08T14:47:55.935Z,10.18
2023-01-08T14:50:23.932Z,10.05
2023-01-08T14:52:52.401Z,9.94
2023-01-08T14:55:20.479Z,9.85
2023-01-08T14:57:48.277Z,9.76
2023-01-08T15:00:16.685Z,9.70
2023-01-08T15:02:46.709Z,9.67
2023-01-08T15:05:15.087Z,9.62
2023-01-08T15:07:43.120Z,9.56
2023-01-08T15:10:11.117Z,9.50
2023-01-08T15:12:39.018Z,9.45
2023-01-08T15:15:06.986Z,9.41
2023-01-08T15:17:35.351Z,9.37
2023-01-08T15:20:03.244Z,9.33
2023-01-08T15:22:33.187Z,9.28
2023-01-08T15:25:01.464Z,9.25
2023-01-08T15:27:31.544Z,9.22
2023-01-08T15:30:01.017Z,9.17
2023-01-08T15:32:29.152Z,9.12
2023-01-08T15:34:57.060Z,9.08
2023-01-08T15:37:25.067Z,9.07
2023-01-08T15:39:53.491Z,9.08
2023-01-08T15:42:41.236Z,9.10
2023-01-08T15:45:09.204Z,9.13
2023-01-08T15:47:37.151Z,9.15
2023-01-08T15:50:05.414Z,9.17
2023-01-08T15:52:33.476Z,9.20
2023-01-08T15:55:02.370Z,9.25
2023-01-08T15:57:30.782Z,9.27
2023-01-08T15:59:58.662Z,9.30
2023-01-08T16:02:27.114Z,9.30
2023-01-08T16:04:55.440Z,9.27
2023-01-08T16:07:24.327Z,9.23
2023-01-08T16:09:52.136Z,9.20
2023-01-08T16:12:20.059Z,9.16
2023-01-08T16:14:48.508Z,9.10
2023-01-08T16:17:16.569Z,9.04
2023-01-08T16:19:45.232Z,8.99
2023-01-08T16:22:13.247Z,8.98
2023-01-08T16:24:41.202Z,8.95
2023-01-08T16:27:11.184Z,8.95
2023-01-08T16:29:39.445Z,8.93
2023-01-08T16:32:07.711Z,8.93
2023-01-08T16:34:35.746Z,8.95
2023-01-08T16:37:03.845Z,8.98
2023-01-08T16:39:32.386Z,9.03
2023-01-08T16:42:00.291Z,9.07
2023-01-08T16:44:29.351Z,9.12
2023-01-08T16:46:57.234Z,9.12
2023-01-08T16:49:25.269Z,9.02
2023-01-08T16:51:53.435Z,8.86
2023-01-08T16:54:21.887Z,8.73
2023-01-08T16:56:50.297Z,8.62
2023-01-08T16:59:23.809Z,8.53
2023-01-08T17:01:51.992Z,8.49
2023-01-08T17:04:20.238Z,8.48
2023-01-08T17:06:48.238Z,8.45
2023-01-08T17:09:16.440Z,8.42
2023-01-08T17:11:46.088Z,8.42
2023-01-08T17:14:14.240Z,8.43
2023-01-08T17:16:43.069Z,8.46
2023-01-08T17:19:11.215Z,8.47
2023-01-08T17:21:39.584Z,8.46
2023-01-08T17:24:07.519Z,8.44
2023-01-08T17:26:35.583Z,8.43
2023-01-08T17:29:03.708Z,8.41
2023-01-08T17:31:36.934Z,8.38
2023-01-08T17:34:05.327Z,8.36
2023-01-08T17:36:34.299Z,8.37
2023-01-08T17:39:02.372Z,8.38
2023-01-08T17:41:47.450Z,8.40
2023-01-08T17:44:16.353Z,8.43
2023-01-08T17:46:45.464Z,8.48
2023-01-08T17:49:13.367Z,8.55
2023-01-08T17:51:42.427Z,8.60
2023-01-08T17:54:10.421Z,8.64
2023-01-08T17:56:38.628Z,8.66
2023-01-08T17:59:06.692Z,8.67
2023-01-08T18:01:35.452Z,8.67
2023-01-08T18:04:03.508Z,8.64
2023-01-08T18:06:31.446Z,8.63
2023-01-08T18:09:00.477Z,8.61
2023-01-08T18:11:28.447Z,8.61
2023-01-08T18:13:56.861Z,8.60
2023-01-08T18:16:25.035Z,8.60
2023-01-08T18:18:53.026Z,8.57
2023-01-08T18:21:21.677Z,8.59
2023-01-08T18:23:49.629Z,8.62
2023-01-08T18:26:17.518Z,8.62
2023-01-08T18:28:45.634Z,8.59
2023-01-08T18:31:13.550Z,8.54
2023-01-08T18:33:42.523Z,8.51
2023-01-08T18:36:11.081Z,8.49
2023-01-08T18:38:38.966Z,8.46
2023-01-08T18:41:06.783Z,8.45
2023-01-08T18:43:35.787Z,8.45
2023-01-08T18:46:05.525Z,8.46
2023-01-08T18:48:33.499Z,8.49
2023-01-08T18:51:05.660Z,8.57
2023-01-08T18:53:33.574Z,8.64
2023-01-08T18:56:01.555Z,8.67
2023-01-08T18:58:30.041Z,8.70
2023-01-08T19:00:57.983Z,8.70
2023-01-08T19:03:25.863Z,8.66
2023-01-08T19:05:53.911Z,8.66
2023-01-08T19:08:21.703Z,8.65
2023-01-08T19:10:50.509Z,8.63
2023-01-08T19:13:19.448Z,8.62
2023-01-08T19:15:47.319Z,8.61
2023-01-08T19:18:15.203Z,8.63
2023-01-08T19:20:43.540Z,8.62
2023-01-08T19:23:12.150Z,8.60
2023-01-08T19:25:40.026Z,8.58
2023-01-08T19:28:07.966Z,8.61
2023-01-08T19:30:35.892Z,8.61
2023-01-08T19:33:03.864Z,8.63
2023-01-08T19:35:32.541Z,8.66
2023-01-08T19:38:00.498Z,8.68
2023-01-08T19:40:28.721Z,8.68
2023-01-08T19:43:14.245Z,8.66
2023-01-08T19:45:43.356Z,8.63
2023-01-08T19:48:11.146Z,8.59
2023-01-08T19:50:39.276Z,8.58
2023-01-08T19:53:07.163Z,8.54
2023-01-08T19:55:35.199Z,8.53
2023-01-08T19:58:03.914Z,8.52
2023-01-08T20:00:37.582Z,8.52
2023-01-08T20:03:05.652Z,8.57
2023-01-08T20:05:33.521Z,8.63
2023-01-08T20:08:01.465Z,8.69
2023-01-08T20:10:29.707Z,8.76
2023-01-08T20:12:57.556Z,8.81
2023-01-08T20:15:25.465Z,8.87
2023-01-08T20:17:53.591Z,8.93
2023-01-08T20:20:21.400Z,8.99
2023-01-08T20:22:51.422Z,9.04
2023-01-08T20:25:19.354Z,9.07
2023-01-08T20:27:47.200Z,9.10
2023-01-08T20:30:15.321Z,9.14
2023-01-08T20:32:43.262Z,9.16
2023-01-08T20:35:11.597Z,9.21
2023-01-08T20:37:39.566Z,9.24
2023-01-08T20:40:07.516Z,9.28
2023-01-08T20:42:35.404Z,9.31
2023-01-08T20:45:03.798Z,9.35
2023-01-08T20:47:32.513Z,9.37
2023-01-08T20:50:03.187Z,9.38
2023-01-08T20:52:33.017Z,9.36
2023-01-08T20:55:00.840Z,9.32
2023-01-08T20:57:28.728Z,9.31
2023-01-08T20:59:57.476Z,9.28
2023-01-08T21:02:25.461Z,9.26
2023-01-08T21:04:55.205Z,9.24
2023-01-08T21:07:23.725Z,9.20
2023-01-08T21:09:51.649Z,9.18
2023-01-08T21:12:20.272Z,9.12
2023-01-08T21:14:48.363Z,9.12
2023-01-08T21:17:16.309Z,9.12
2023-01-08T21:19:44.341Z,9.15
2023-01-08T21:22:12.361Z,9.19
2023-01-08T21:24:40.589Z,9.22
2023-01-08T21:27:08.467Z,9.25
2023-01-08T21:29:36.863Z,9.26
2023-01-08T21:32:05.513Z,9.26
2023-01-08T21:34:33.534Z,9.26
2023-01-08T21:37:05.213Z,9.27
2023-01-08T21:39:33.286Z,9.26
2023-01-08T21:42:14.878Z,9.27
2023-01-08T21:45:08.479Z,9.30
2023-01-08T21:47:37.395Z,9.29
2023-01-08T21:50:05.342Z,9.29
2023-01-08T21:52:50.717Z,9.30
2023-01-08T21:55:18.670Z,9.29
2023-01-08T21:57:47.085Z,9.28
2023-01-08T22:00:15.116Z,9.28
2023-01-08T22:02:43.145Z,9.28
2023-01-08T22:05:11.016Z,9.27
2023-01-08T22:07:39.094Z,9.28
2023-01-08T22:10:08.908Z,9.27
2023-01-08T22:12:36.862Z,9.31
2023-01-08T22:15:05.009Z,9.35
2023-01-08T22:17:32.834Z,9.39
2023-01-08T22:20:01.661Z,9.42
2023-01-08T22:22:30.267Z,9.44
2023-01-08T22:24:58.106Z,9.47
2023-01-08T22:27:25.849Z,9.50
2023-01-08T22:29:54.891Z,9.52
2023-01-08T22:32:23.047Z,9.53
2023-01-08T22:34:52.207Z,9.53
2023-01-08T22:37:22.238Z,9.52
2023-01-08T22:39:50.231Z,9.51
2023-01-08T22:42:18.209Z,9.51
2023-01-08T22:44:46.148Z,9.49
2023-01-08T22:47:14.091Z,9.47
2023-01-08T22:49:41.829Z,9.48
2023-01-08T22:52:10.342Z,9.46
2023-01-08T22:54:38.628Z,9.47
2023-01-08T22:57:06.341Z,9.48
2023-01-08T22:59:34.517Z,9.50
2023-01-08T23:02:02.292Z,9.49
2023-01-08T23:04:29.989Z,9.48
2023-01-08T23:06:57.788Z,9.49
2023-01-08T23:09:25.910Z,9.47
2023-01-08T23:11:54.653Z,9.47
2023-01-08T23:14:22.423Z,9.47
2023-01-08T23:16:50.373Z,9.48
2023-01-08T23:19:18.277Z,9.50
2023-01-08T23:21:46.045Z,9.51
2023-01-08T23:24:14.407Z,9.53
2023-01-08T23:26:42.125Z,9.54
2023-01-08T23:29:10.792Z,9.53
2023-01-08T23:31:38.999Z,9.55
2023-01-08T23:34:06.741Z,9.56
2023-01-08T23:36:36.407Z,9.58
2023-01-08T23:39:04.271Z,9.58
2023-01-08T23:41:35.467Z,9.58
2023-01-08T23:44:03.364Z,9.58
2023-01-08T23:46:31.106Z,9.59
2023-01-08T23:48:59.524Z,9.55
2023-01-08T23:51:27.307Z,9.50
2023-01-08T23:53:54.999Z,9.44
2023-01-08T23:56:22.639Z,9.35
2023-01-08T23:58:50.371Z,9.26
